Time;durP1;ratioP1;P1;durP2;ratioP2;P2;SDS_P1;SDS_P2;PMS_P1;PMS_P2;Temp;Humidity;BMP_temperature;BMP_pressure;BME280_temperature;BME280_humidity;BME280_pressure;Samples;Min_cycle;Max_cycle;Signal;HPM_P1;HPM_P2
2021/03/02 00:00:23;;;;;;;45.37;22.00;;;;;;;3.85;69.58;100722.92;124204;1105;104230;-67
2021/03/02 00:03:11;;;;;;;47.43;23.33;;;;;;;3.86;70.25;100717.65;124141;1105;104208;-68
2021/03/02 00:05:39;;;;;;;45.85;22.15;;;;;;;3.87;69.58;100714.09;124124;1105;104187;-68
2021/03/02 00:08:08;;;;;;;49.33;22.23;;;;;;;3.87;69.47;100714.09;124154;1105;104163;-67
2021/03/02 00:10:39;;;;;;;47.07;22.57;;;;;;;3.91;69.78;100714.92;124843;1105;104157;-67
2021/03/02 00:13:07;;;;;;;46.53;22.30;;;;;;;3.92;69.85;100719.29;125909;1105;104303;-68
2021/03/02 00:15:34;;;;;;;47.43;21.97;;;;;;;3.94;69.94;100713.98;125195;1105;104217;-67
2021/03/02 00:18:07;;;;;;;47.20;22.33;;;;;;;3.91;69.77;100714.92;124235;1105;104255;-67
2021/03/02 00:20:39;;;;;;;45.57;22.50;;;;;;;3.90;69.40;100712.30;124143;1105;104694;-66
2021/03/02 00:23:13;;;;;;;44.57;19.93;;;;;;;3.90;70.04;100705.28;124272;1105;104684;-66
2021/03/02 00:25:43;;;;;;;49.53;22.43;;;;;;;3.87;69.87;100711.45;124183;1105;104221;-68
2021/03/02 00:28:12;;;;;;;43.53;21.00;;;;;;;3.88;69.80;100707.08;124284;1105;104210;-67
2021/03/02 00:30:39;;;;;;;47.57;23.00;;;;;;;3.84;69.45;100706.28;123855;1105;104217;-67
2021/03/02 00:33:11;;;;;;;45.47;21.53;;;;;;;3.85;69.58;100715.03;124479;1105;104162;-67
2021/03/02 00:35:41;;;;;;;46.67;21.60;;;;;;;3.83;69.87;100708.92;124271;1105;104214;-67
2021/03/02 00:38:08;;;;;;;45.63;21.93;;;;;;;3.83;70.11;100706.29;124600;1105;104179;-66
2021/03/02 00:40:35;;;;;;;47.20;23.27;;;;;;;3.84;70.25;100701.02;124208;1105;104235;-68
2021/03/02 00:43:05;;;;;;;48.33;23.47;;;;;;;3.85;69.61;100704.50;124193;1105;104275;-66
2021/03/02 00:45:33;;;;;;;48.15;23.95;;;;;;;3.84;69.98;100692.23;124153;1105;104261;-67
2021/03/02 00:48:01;;;;;;;45.25;21.00;;;;;;;3.83;70.14;100699.28;124407;1105;104253;-67
2021/03/02 00:50:30;;;;;;;45.37;21.93;;;;;;;3.76;70.06;100689.75;124250;1105;104268;-67
2021/03/02 00:52:57;;;;;;;50.90;25.33;;;;;;;3.70;69.68;100697.75;124171;1105;104220;-67
2021/03/02 00:55:24;;;;;;;48.87;23.33;;;;;;;3.70;69.52;100690.71;124616;1105;104246;-67
2021/03/02 00:57:52;;;;;;;51.37;25.20;;;;;;;3.71;69.83;100687.19;124411;1105;104236;-68
2021/03/02 01:00:24;;;;;;;55.13;25.00;;;;;;;3.70;69.69;100685.45;124270;1106;104191;-69
2021/03/02 01:02:51;;;;;;;48.63;23.43;;;;;;;3.70;69.63;100684.59;124291;1105;104677;-68
2021/03/02 01:05:21;;;;;;;54.83;26.03;;;;;;;3.68;70.07;100684.61;124192;1105;104274;-68
2021/03/02 01:07:48;;;;;;;50.07;24.33;;;;;;;3.67;69.63;100676.75;124242;1105;104220;-67
2021/03/02 01:10:15;;;;;;;50.83;24.60;;;;;;;3.64;70.13;100682.95;124706;1106;104254;-67
2021/03/02 01:12:42;;;;;;;51.45;26.05;;;;;;;3.61;69.75;100672.48;125036;1105;102017;-67
2021/03/02 01:15:11;;;;;;;49.35;24.40;;;;;;;3.56;70.18;100675.17;124230;1105;104277;-66
2021/03/02 01:17:40;;;;;;;53.47;25.90;;;;;;;3.56;69.96;100671.70;124267;1105;104265;-67
2021/03/02 01:20:09;;;;;;;51.93;25.20;;;;;;;3.54;69.51;100666.44;124298;1105;104255;-65
2021/03/02 01:22:40;;;;;;;53.97;25.43;;;;;;;3.52;69.53;100659.48;124734;1105;104267;-66
2021/03/02 01:25:11;;;;;;;50.10;25.30;;;;;;;3.51;69.63;100650.71;124303;1105;104299;-66
2021/03/02 01:27:40;;;;;;;50.07;24.30;;;;;;;3.47;70.13;100651.66;124103;1105;104272;-67
2021/03/02 01:30:11;;;;;;;52.93;24.60;;;;;;;3.43;70.17;100648.23;124289;1105;104743;-67
2021/03/02 01:32:40;;;;;;;53.77;24.43;;;;;;;3.42;69.98;100650.90;124169;1105;104235;-67
2021/03/02 01:35:13;;;;;;;56.03;27.20;;;;;;;3.34;69.61;100647.53;125388;1105;104191;-69
2021/03/02 01:37:40;;;;;;;57.67;27.23;;;;;;;3.29;70.05;100639.70;124328;1105;104165;-67
2021/03/02 01:40:18;;;;;;;53.10;25.33;;;;;;;3.24;70.05;100649.46;124168;1105;105688;-66
2021/03/02 01:42:46;;;;;;;56.63;27.87;;;;;;;3.19;70.12;100648.67;124168;1105;104386;-66
2021/03/02 01:45:17;;;;;;;53.92;27.02;;;;;;;3.11;69.94;100639.14;124113;1105;104272;-67
2021/03/02 01:47:49;;;;;;;54.13;26.10;;;;;;;3.06;69.70;100646.23;124175;1105;104188;-67
2021/03/02 01:50:19;;;;;;;56.00;26.50;;;;;;;3.03;70.24;100648.05;124259;1105;104316;-66
2021/03/02 01:52:46;;;;;;;57.50;27.40;;;;;;;3.00;69.81;100640.21;124234;1105;104354;-67
2021/03/02 01:55:16;;;;;;;54.80;26.97;;;;;;;2.94;69.90;100635.91;124157;1106;104268;-67
2021/03/02 01:57:44;;;;;;;54.53;25.57;;;;;;;2.89;69.65;100645.62;124196;1105;104280;-66
2021/03/02 02:00:26;;;;;;;53.13;26.30;;;;;;;2.86;69.74;100640.41;124241;1105;104162;-66
2021/03/02 02:03:18;;;;;;;59.90;27.10;;;;;;;2.79;69.86;100639.64;124225;1105;104239;-66
2021/03/02 02:06:35;;;;;;;50.73;25.40;;;;;;;2.76;70.47;100634.43;124291;1105;104265;-67
2021/03/02 02:09:38;;;;;;;55.57;26.53;;;;;;;2.70;69.63;100639.78;124740;1105;104175;-67
2021/03/02 02:12:22;;;;;;;59.03;27.67;;;;;;;2.68;69.87;100639.81;124418;1106;104187;-66
2021/03/02 02:15:00;;;;;;;55.70;26.53;;;;;;;2.66;69.76;100644.22;124170;1105;104158;-67
2021/03/02 02:17:51;;;;;;;55.00;26.53;;;;;;;2.63;69.84;100641.64;124156;1105;104207;-67
2021/03/02 02:20:43;;;;;;;54.03;26.33;;;;;;;2.62;69.84;100637.27;124291;1105;104412;-67
2021/03/02 02:23:18;;;;;;;59.38;26.97;;;;;;;2.60;70.08;100629.43;124162;1105;104181;-67
2021/03/02 02:26:18;;;;;;;56.97;29.87;;;;;;;2.56;69.76;100626.84;124206;1106;104283;-67
2021/03/02 02:28:48;;;;;;;57.40;25.83;;;;;;;2.51;69.80;100633.03;124731;1105;104165;-67
2021/03/02 02:31:19;;;;;;;55.37;27.93;;;;;;;2.48;69.75;100634.85;124252;1105;104159;-67
2021/03/02 02:33:50;;;;;;;56.03;27.57;;;;;;;2.44;69.74;100634.03;124205;1105;104216;-67
2021/03/02 02:36:21;;;;;;;55.90;27.80;;;;;;;2.41;70.17;100623.57;124187;1105;104258;-66
2021/03/02 02:38:55;;;;;;;59.17;27.53;;;;;;;2.36;69.67;100633.27;124214;1105;104303;-67
2021/03/02 02:41:26;;;;;;;54.90;26.50;;;;;;;2.29;69.50;100627.21;124341;1105;104169;-67
2021/03/02 02:43:55;;;;;;;56.70;27.07;;;;;;;2.20;69.96;100625.59;124249;1106;104632;-67
2021/03/02 02:46:26;;;;;;;62.40;29.90;;;;;;;2.20;69.94;100620.33;124209;1105;104332;-67
2021/03/02 02:48:58;;;;;;;58.93;29.93;;;;;;;2.17;70.02;100623.00;124097;1105;104312;-67
2021/03/02 02:51:26;;;;;;;60.07;28.10;;;;;;;2.14;70.21;100622.19;124211;1105;104194;-67
2021/03/02 02:53:55;;;;;;;58.47;28.03;;;;;;;2.11;69.79;100623.07;124128;1105;104265;-66
2021/03/02 02:56:22;;;;;;;56.57;27.60;;;;;;;2.11;70.20;100622.22;124824;1105;104270;-66
2021/03/02 02:59:09;;;;;;;63.37;28.27;;;;;;;2.13;70.59;100623.92;124216;1105;104299;-66
2021/03/02 03:01:45;;;;;;;58.43;27.13;;;;;;;2.15;70.10;100616.05;124119;1105;104254;-66
2021/03/02 03:04:19;;;;;;;61.67;28.93;;;;;;;2.12;70.60;100616.94;124779;1105;104159;-66
2021/03/02 03:06:49;;;;;;;61.20;28.67;;;;;;;2.19;70.50;100615.12;124453;1105;104720;-66
2021/03/02 03:09:20;;;;;;;55.23;26.07;;;;;;;2.24;70.21;100615.93;125074;1105;102505;-66
2021/03/02 03:11:56;;;;;;;58.17;29.50;;;;;;;2.24;70.13;100613.30;124797;1105;104469;-66
2021/03/02 03:14:52;;;;;;;60.03;28.77;;;;;;;2.27;70.47;100615.00;124240;1105;104239;-67
2021/03/02 03:17:21;;;;;;;62.30;29.00;;;;;;;2.27;70.21;100609.75;124300;1105;104269;-66
2021/03/02 03:19:51;;;;;;;58.83;29.03;;;;;;;2.29;70.30;100619.33;124268;1105;104277;-68
2021/03/02 03:22:20;;;;;;;61.67;29.27;;;;;;;2.30;70.17;100615.81;124296;1105;104227;-68
2021/03/02 03:24:49;;;;;;;57.77;28.77;;;;;;;2.29;70.54;100623.73;124242;1105;104316;-68
2021/03/02 03:27:18;;;;;;;61.13;29.37;;;;;;;2.28;70.20;100614.97;124169;1105;104219;-67
2021/03/02 03:29:48;;;;;;;63.13;29.67;;;;;;;2.25;70.42;100619.41;124886;1105;104156;-68
2021/03/02 03:32:17;;;;;;;60.23;30.40;;;;;;;2.20;69.72;100612.45;124182;1105;104217;-67
2021/03/02 03:34:46;;;;;;;63.40;31.13;;;;;;;2.16;70.46;100623.03;124278;1105;104204;-66
2021/03/02 03:37:14;;;;;;;63.77;31.77;;;;;;;2.10;70.33;100623.95;124175;1105;104393;-67
2021/03/02 03:39:41;;;;;;;63.87;31.70;;;;;;;2.03;69.96;100617.08;125462;1105;104166;-67
2021/03/02 03:42:08;;;;;;;64.27;31.97;;;;;;;1.94;69.66;100615.41;123963;1105;104328;-66
2021/03/02 03:44:35;;;;;;;65.27;31.50;;;;;;;1.93;69.90;100618.92;124235;1105;104437;-67
2021/03/02 03:47:04;;;;;;;65.03;32.87;;;;;;;1.94;69.96;100615.41;124156;1105;104258;-67
2021/03/02 03:49:33;;;;;;;66.80;32.40;;;;;;;1.92;70.00;100602.33;124208;1105;104345;-67
2021/03/02 03:52:08;;;;;;;63.07;30.53;;;;;;;1.85;70.63;100600.66;124239;1105;104268;-66
2021/03/02 03:54:37;;;;;;;61.90;30.95;;;;;;;1.84;70.66;100601.55;124344;1105;104586;-68
2021/03/02 03:57:06;;;;;;;63.80;32.77;;;;;;;1.80;70.18;100596.36;124293;1105;104265;-66
2021/03/02 03:59:36;;;;;;;63.57;30.33;;;;;;;1.78;70.17;100601.61;124333;1105;104166;-66
2021/03/02 04:02:06;;;;;;;61.05;31.50;;;;;;;1.70;70.40;100595.58;124325;1105;104406;-67
2021/03/02 04:04:38;;;;;;;66.37;31.57;;;;;;;1.69;70.42;100605.22;124162;1106;104159;-66
2021/03/02 04:07:06;;;;;;;66.50;33.77;;;;;;;1.65;70.74;100606.14;124245;1105;104171;-67
2021/03/02 04:09:34;;;;;;;62.63;32.00;;;;;;;1.66;70.12;100604.37;123914;1105;104194;-67
2021/03/02 04:12:09;;;;;;;71.60;34.80;;;;;;;1.63;70.45;100603.52;124267;1105;104168;-66
2021/03/02 04:14:38;;;;;;;67.07;35.50;;;;;;;1.60;70.70;100607.94;124231;1105;104184;-68
2021/03/02 04:17:09;;;;;;;67.80;34.63;;;;;;;1.57;70.41;100600.09;124164;1105;104204;-68
2021/03/02 04:19:39;;;;;;;72.10;36.75;;;;;;;1.53;70.61;100596.66;124185;1105;104181;-68
2021/03/02 04:22:07;;;;;;;64.37;30.97;;;;;;;1.56;70.43;100601.88;125768;1105;104157;-69
2021/03/02 04:24:34;;;;;;;77.97;39.53;;;;;;;1.55;70.69;100607.11;124186;1105;104262;-67
2021/03/02 04:27:02;;;;;;;72.90;35.70;;;;;;;1.58;70.63;100620.20;124336;1105;104299;-67
2021/03/02 04:29:29;;;;;;;76.47;38.17;;;;;;;1.57;70.33;100621.08;124100;1105;104185;-67
2021/03/02 04:31:57;;;;;;;78.93;38.70;;;;;;;1.58;70.85;100610.59;124353;1105;104245;-67
2021/03/02 04:34:25;;;;;;;78.47;36.23;;;;;;;1.59;70.45;100612.33;124209;1105;104227;-67
2021/03/02 04:36:54;;;;;;;73.73;38.10;;;;;;;1.61;70.94;100605.31;124299;1105;104269;-71
2021/03/02 04:39:21;;;;;;;76.30;40.58;;;;;;;1.63;70.62;100608.76;124300;1105;104473;-67
2021/03/02 04:41:48;;;;;;;81.93;40.43;;;;;;;1.65;70.67;100611.38;124207;1105;104246;-67
2021/03/02 04:44:14;;;;;;;76.93;38.37;;;;;;;1.64;70.48;100609.64;124186;1105;104259;-67
2021/03/02 04:46:41;;;;;;;78.30;40.90;;;;;;;1.58;70.27;100605.34;124313;1105;104267;-67
2021/03/02 04:49:09;;;;;;;81.05;42.10;;;;;;;1.59;70.51;100608.83;124126;1105;104291;-66
2021/03/02 04:51:36;;;;;;;82.10;42.13;;;;;;;1.56;70.54;100599.25;124186;1105;104309;-68
2021/03/02 04:54:04;;;;;;;77.30;39.07;;;;;;;1.56;70.82;100591.38;126196;1105;102742;-67
2021/03/02 04:56:31;;;;;;;83.73;43.50;;;;;;;1.51;70.45;100584.43;126337;1104;101783;-67
2021/03/02 04:58:58;;;;;;;75.93;38.17;;;;;;;1.50;70.81;100588.81;126385;1105;102160;-67
2021/03/02 05:01:25;;;;;;;82.33;41.37;;;;;;;1.52;70.44;100589.67;125761;1104;103069;-67
2021/03/02 05:03:52;;;;;;;83.03;43.67;;;;;;;1.56;70.98;100593.12;126220;1105;102192;-67
2021/03/02 05:06:19;;;;;;;78.78;41.23;;;;;;;1.57;70.92;100594.85;125492;1105;104670;-67
2021/03/02 05:08:46;;;;;;;87.47;44.47;;;;;;;1.58;70.47;100596.59;124115;1104;104175;-67
2021/03/02 05:11:13;;;;;;;88.73;44.00;;;;;;;1.62;70.96;100604.43;124366;1105;104392;-67
2021/03/02 05:13:40;;;;;;;93.43;48.50;;;;;;;1.67;70.71;100591.25;124212;1105;104405;-66
2021/03/02 05:16:13;;;;;;;86.40;44.17;;;;;;;1.67;70.77;100590.37;124534;1105;104195;-66
2021/03/02 05:18:42;;;;;;;95.03;45.73;;;;;;;1.65;71.07;100585.15;124215;1106;104187;-66
2021/03/02 05:21:09;;;;;;;94.73;46.97;;;;;;;1.66;70.53;100583.38;124284;1105;104187;-67
2021/03/02 05:23:38;;;;;;;76.30;37.83;;;;;;;1.64;70.81;100575.55;124060;1105;104307;-68
2021/03/02 05:26:05;;;;;;;93.23;47.90;;;;;;;1.57;70.76;100560.76;124363;1105;104309;-68
2021/03/02 05:28:34;;;;;;;80.40;42.20;;;;;;;1.51;70.98;100561.71;123930;1106;104313;-69
2021/03/02 05:31:01;;;;;;;85.00;41.10;;;;;;;1.41;71.17;100565.31;124216;1105;104278;-69
2021/03/02 05:33:28;;;;;;;91.47;46.07;;;;;;;1.33;71.02;100568.02;124121;1105;104220;-70
2021/03/02 05:35:55;;;;;;;92.90;47.53;;;;;;;1.32;71.42;100567.14;124169;1105;104286;-67
2021/03/02 05:38:22;;;;;;;86.90;44.40;;;;;;;1.33;71.12;100563.63;124169;1105;104207;-67
2021/03/02 05:40:49;;;;;;;89.57;45.47;;;;;;;1.31;71.25;100565.41;124159;1106;104235;-68
2021/03/02 05:43:17;;;;;;;96.25;49.10;;;;;;;1.27;71.11;100563.70;124113;1106;104233;-68
2021/03/02 05:45:44;;;;;;;105.80;47.70;;;;;;;1.29;71.40;100559.30;123872;1105;104185;-68
2021/03/02 05:48:12;;;;;;;99.30;50.65;;;;;;;1.29;71.46;100567.17;124046;1105;104667;-67
2021/03/02 05:50:40;;;;;;;88.17;42.33;;;;;;;1.34;70.83;100567.14;123906;1105;104221;-68
2021/03/02 05:53:09;;;;;;;107.07;52.03;;;;;;;1.32;71.27;100569.77;124210;1105;104245;-67
2021/03/02 05:55:36;;;;;;;102.40;52.45;;;;;;;1.34;71.34;100570.62;124041;1105;104179;-68
2021/03/02 05:58:04;;;;;;;101.30;51.47;;;;;;;1.37;71.29;100569.73;124266;1105;104227;-68
2021/03/02 06:00:32;;;;;;;89.27;42.53;;;;;;;1.42;71.13;100577.54;124185;1105;104230;-68
2021/03/02 06:02:59;;;;;;;99.23;49.17;;;;;;;1.41;71.49;100570.55;123831;1105;104377;-67
2021/03/02 06:05:27;;;;;;;89.47;44.10;;;;;;;1.39;71.62;100580.19;124228;1105;104233;-66
2021/03/02 06:07:54;;;;;;;91.60;49.20;;;;;;;1.37;71.24;100574.09;124219;1105;104271;-68
2021/03/02 06:10:32;;;;;;;102.43;50.83;;;;;;;1.39;71.29;100573.20;124191;1106;104177;-67
2021/03/02 06:13:00;;;;;;;100.73;50.17;;;;;;;1.42;71.62;100573.18;124208;1105;104230;-68
2021/03/02 06:15:29;;;;;;;102.60;51.87;;;;;;;1.44;71.82;100578.39;124254;1105;104322;-68
2021/03/02 06:18:18;;;;;;;105.93;52.43;;;;;;;1.45;71.68;100580.13;124159;1105;104242;-69
2021/03/02 06:20:45;;;;;;;103.13;50.03;;;;;;;1.52;71.38;100580.92;123900;1105;104242;-69
2021/03/02 06:23:30;;;;;;;108.57;54.23;;;;;;;1.57;71.37;100587.88;124033;1105;104402;-68
2021/03/02 06:26:15;;;;;;;99.50;53.40;;;;;;;1.63;71.85;100587.77;123897;1105;104281;-70
2021/03/02 06:28:44;;;;;;;79.00;40.53;;;;;;;1.70;71.56;100588.59;124040;1105;104755;-68
2021/03/02 06:31:33;;;;;;;101.57;50.97;;;;;;;1.71;71.76;100590.33;124219;1105;104166;-69
2021/03/02 06:34:16;;;;;;;113.33;56.63;;;;;;;1.81;71.98;100595.48;124238;1105;104152;-68
2021/03/02 06:36:52;;;;;;;103.57;53.90;;;;;;;1.93;71.98;100588.31;124224;1105;104197;-67
2021/03/02 06:39:36;;;;;;;109.07;56.40;;;;;;;2.02;71.83;100587.32;124274;1105;104229;-68
2021/03/02 06:42:18;;;;;;;102.32;53.08;;;;;;;2.09;72.06;100588.09;124244;1106;104252;-68
2021/03/02 06:45:07;;;;;;;100.00;51.87;;;;;;;2.09;71.63;100585.47;124203;1105;104159;-69
2021/03/02 06:47:40;;;;;;;109.20;56.25;;;;;;;2.12;72.03;100585.44;124005;1105;104328;-69
2021/03/02 06:50:11;;;;;;;112.95;54.90;;;;;;;2.15;71.42;100585.39;124188;1105;104223;-70
2021/03/02 06:52:41;;;;;;;104.80;55.90;;;;;;;2.16;71.31;100587.13;124194;1105;104339;-71
2021/03/02 06:55:17;;;;;;;101.83;51.27;;;;;;;2.15;71.67;100588.02;123982;1105;104403;-70
2021/03/02 06:57:46;;;;;;;110.47;57.90;;;;;;;2.19;71.53;100592.34;124180;1105;104162;-71
2021/03/02 07:00:15;;;;;;;111.97;57.73;;;;;;;2.22;71.78;100589.67;124242;1105;104325;-70
2021/03/02 07:02:44;;;;;;;113.77;57.77;;;;;;;2.27;71.56;100586.13;123872;1105;104587;-67
2021/03/02 07:05:17;;;;;;;115.53;63.13;;;;;;;2.29;72.05;100590.45;123871;1105;104351;-69
2021/03/02 07:07:55;;;;;;;114.93;58.13;;;;;;;2.28;71.89;100593.11;124216;1105;104344;-70
2021/03/02 07:10:23;;;;;;;101.63;54.40;;;;;;;2.28;71.88;100583.46;124153;1106;104197;-69
2021/03/02 07:12:55;;;;;;;100.77;53.93;;;;;;;2.27;71.97;100597.48;124185;1105;104171;-68
2021/03/02 07:15:24;;;;;;;104.43;55.67;;;;;;;2.31;71.63;100598.32;124118;1105;104182;-68
2021/03/02 07:17:54;;;;;;;108.33;55.50;;;;;;;2.38;72.06;100595.58;124312;1105;104257;-67
2021/03/02 07:20:24;;;;;;;118.27;59.07;;;;;;;2.45;71.72;100598.97;124247;1105;104316;-68
2021/03/02 07:22:54;;;;;;;114.67;59.07;;;;;;;2.47;71.44;100599.81;124205;1105;104210;-69
2021/03/02 07:25:23;;;;;;;106.77;55.53;;;;;;;2.47;71.65;100598.97;124242;1106;104168;-68
2021/03/02 07:27:58;;;;;;;106.07;56.70;;;;;;;2.46;71.86;100598.08;124259;1105;104278;-69
2021/03/02 07:30:26;;;;;;;106.90;53.75;;;;;;;2.44;72.16;100599.01;124238;1105;104175;-68
2021/03/02 07:32:54;;;;;;;103.35;53.70;;;;;;;2.42;71.33;100601.67;124183;1106;104159;-68
2021/03/02 07:35:25;;;;;;;93.00;49.43;;;;;;;2.38;72.20;100606.08;124188;1105;104184;-69
2021/03/02 07:37:52;;;;;;;94.15;49.75;;;;;;;2.32;71.81;100614.04;124244;1105;104258;-70
2021/03/02 07:40:20;;;;;;;106.30;54.53;;;;;;;2.30;71.77;100615.81;124003;1105;104280;-69
2021/03/02 07:42:47;;;;;;;96.33;50.77;;;;;;;2.33;71.58;100612.30;124172;1105;104182;-70
2021/03/02 07:45:19;;;;;;;97.27;52.37;;;;;;;2.33;71.49;100614.92;124261;1105;104208;-70
2021/03/02 07:48:00;;;;;;;96.83;48.50;;;;;;;2.31;71.54;100619.33;124132;1105;104261;-68
2021/03/02 07:50:33;;;;;;;86.00;44.60;;;;;;;2.29;72.06;100605.35;124157;1105;104229;-69
2021/03/02 07:53:16;;;;;;;92.97;47.23;;;;;;;2.27;72.01;100602.73;124257;1105;104261;-68
2021/03/02 07:55:45;;;;;;;94.27;48.53;;;;;;;2.35;72.39;100605.27;124264;1105;104236;-70
2021/03/02 07:58:21;;;;;;;92.53;47.97;;;;;;;2.36;71.55;100601.75;124266;1105;104230;-70
2021/03/02 08:00:50;;;;;;;90.70;45.70;;;;;;;2.36;72.30;100602.61;124218;1105;104304;-70
2021/03/02 08:03:29;;;;;;;98.10;50.30;;;;;;;2.38;72.42;100603.45;124260;1106;104174;-69
2021/03/02 08:06:22;;;;;;;96.80;49.73;;;;;;;2.48;71.66;100592.82;124165;1105;104246;-69
2021/03/02 08:08:52;;;;;;;94.95;51.08;;;;;;;2.62;71.99;100598.75;124232;1105;104165;-70
2021/03/02 08:11:33;;;;;;;97.17;49.97;;;;;;;2.66;71.84;100589.05;124207;1105;104181;-69
2021/03/02 08:14:16;;;;;;;94.73;48.93;;;;;;;2.80;72.21;100580.94;124204;1106;104156;-69
2021/03/02 08:16:58;;;;;;;85.50;43.40;;;;;;;2.93;71.89;100574.59;124259;1105;104763;-69
2021/03/02 08:19:51;;;;;;;89.13;47.17;;;;;;;3.05;71.67;100573.51;124229;1105;104615;-71
2021/03/02 08:22:19;;;;;;;86.70;47.63;;;;;;;3.18;72.00;100573.30;124251;1105;104236;-68
2021/03/02 08:25:18;;;;;;;96.20;50.60;;;;;;;3.15;71.85;100570.72;124160;1105;104327;-68
2021/03/02 08:27:49;;;;;;;86.17;48.17;;;;;;;3.22;71.80;100590.77;124142;1105;104184;-69
2021/03/02 08:30:22;;;;;;;87.53;48.23;;;;;;;3.27;72.31;100588.89;124199;1105;104226;-71
2021/03/02 08:32:51;;;;;;;75.20;38.07;;;;;;;3.36;72.62;100596.62;124158;1105;104210;-68
2021/03/02 08:35:24;;;;;;;85.40;46.33;;;;;;;3.31;72.27;100584.45;123990;1105;104178;-68
2021/03/02 08:37:56;;;;;;;83.55;45.20;;;;;;;3.37;72.14;100589.61;124233;1105;104405;-68
2021/03/02 08:40:32;;;;;;;88.60;44.47;;;;;;;3.33;72.40;100587.92;124202;1106;104255;-69
2021/03/02 08:43:23;;;;;;;88.95;44.80;;;;;;;3.36;72.44;100601.88;124231;1105;104240;-70
2021/03/02 08:45:57;;;;;;;88.13;47.27;;;;;;;3.39;72.67;100599.20;124139;1105;104402;-69
2021/03/02 08:48:42;;;;;;;94.53;49.87;;;;;;;3.41;72.47;100605.30;124216;1105;104217;-68
2021/03/02 08:51:12;;;;;;;98.97;51.27;;;;;;;3.47;72.65;100601.67;124255;1105;104316;-68
2021/03/02 08:53:48;;;;;;;94.93;50.77;;;;;;;3.65;72.19;100605.75;124182;1105;104769;-69
2021/03/02 08:56:17;;;;;;;93.40;49.40;;;;;;;3.99;71.89;100602.43;124251;1105;104184;-69
2021/03/02 08:58:50;;;;;;;89.20;47.40;;;;;;;4.32;71.94;100606.98;124213;1105;104284;-68
2021/03/02 09:01:23;;;;;;;90.80;49.37;;;;;;;4.57;71.69;100604.66;124261;1105;104187;-69
2021/03/02 09:03:52;;;;;;;90.95;47.25;;;;;;;5.00;71.96;100604.53;124224;1105;104194;-69
2021/03/02 09:06:23;;;;;;;87.00;46.57;;;;;;;5.40;71.83;100598.22;124192;1105;104181;-68
2021/03/02 09:08:58;;;;;;;75.07;42.97;;;;;;;5.85;71.69;100599.66;124285;1105;104229;-67
2021/03/02 09:11:37;;;;;;;78.30;43.33;;;;;;;6.24;71.95;100614.39;124198;1105;104156;-70
2021/03/02 09:14:16;;;;;;;73.63;40.80;;;;;;;6.40;71.98;100596.29;124256;1105;104195;-69
2021/03/02 09:16:45;;;;;;;72.60;40.07;;;;;;;6.59;71.32;100603.66;123925;1105;104351;-68
2021/03/02 09:19:21;;;;;;;75.63;42.30;;;;;;;6.64;71.82;100597.30;124133;1105;104254;-69
2021/03/02 09:22:02;;;;;;;78.23;43.00;;;;;;;6.75;72.13;100596.95;124237;1105;104155;-67
2021/03/02 09:24:47;;;;;;;73.03;39.43;;;;;;;6.85;71.74;100584.31;124256;1105;104259;-68
2021/03/02 09:27:15;;;;;;;;;;;;;;;6.99;71.45;100581.20;124285;1105;104313;-69
2021/03/02 09:29:44;;;;;;;61.30;32.40;;;;;;;7.07;72.05;100584.46;124243;1105;104248;-68
2021/03/02 09:32:14;;;;;;;68.00;36.83;;;;;;;7.20;71.60;100584.90;124269;1105;104159;-68
2021/03/02 09:34:48;;;;;;;62.03;32.70;;;;;;;7.32;71.91;100577.45;124332;1104;104182;-68
2021/03/02 09:37:19;;;;;;;64.53;34.20;;;;;;;7.62;72.49;100572.83;124210;1105;104195;-69
2021/03/02 09:40:06;;;;;;;54.97;30.60;;;;;;;7.81;72.03;100566.88;124286;1105;104230;-69
2021/03/02 09:42:37;;;;;;;60.20;33.87;;;;;;;8.13;71.91;100556.83;124197;1105;104297;-68
2021/03/02 09:45:18;;;;;;;48.70;25.37;;;;;;;8.40;72.05;100554.00;124214;1105;104717;-68
2021/03/02 09:47:58;;;;;;;57.25;32.40;;;;;;;8.69;71.84;100541.41;124178;1105;104236;-68
2021/03/02 09:50:35;;;;;;;58.57;33.27;;;;;;;9.01;71.33;100533.88;124213;1105;104242;-68
2021/03/02 09:53:16;;;;;;;55.10;30.77;;;;;;;9.16;71.25;100535.87;124249;1105;104248;-70
2021/03/02 09:55:47;;;;;;;53.73;29.40;;;;;;;9.18;71.38;100539.30;124167;1105;104322;-70
2021/03/02 09:58:19;;;;;;;48.23;25.95;;;;;;;9.29;71.42;100545.94;124205;1105;104184;-70
2021/03/02 10:00:46;;;;;;;54.90;29.57;;;;;;;9.32;71.26;100553.78;124188;1106;104255;-69
2021/03/02 10:03:23;;;;;;;61.13;34.20;;;;;;;9.36;71.32;100564.22;124208;1105;104258;-68
2021/03/02 10:05:57;;;;;;;54.57;30.47;;;;;;;9.39;71.18;100549.93;124194;1105;104222;-68
2021/03/02 10:08:34;;;;;;;53.67;30.27;;;;;;;9.25;70.71;100550.54;124195;1105;104283;-68
2021/03/02 10:11:12;;;;;;;49.67;25.67;;;;;;;9.26;71.06;100565.54;124147;1105;104216;-69
2021/03/02 10:13:51;;;;;;;49.40;27.03;;;;;;;9.15;70.51;100557.17;124272;1105;104217;-68
2021/03/02 10:16:30;;;;;;;49.37;26.00;;;;;;;8.91;70.54;100563.45;124197;1105;104159;-68
2021/03/02 10:19:14;;;;;;;50.00;27.60;;;;;;;8.63;70.39;100558.41;124264;1105;104258;-68
2021/03/02 10:21:51;;;;;;;47.97;26.27;;;;;;;8.54;70.78;100577.38;124236;1106;104299;-68
2021/03/02 10:24:27;;;;;;;48.40;25.93;;;;;;;8.61;70.84;100565.56;124271;1105;104241;-68
2021/03/02 10:26:59;;;;;;;47.33;25.80;;;;;;;8.66;70.57;100571.55;124270;1105;104162;-67
2021/03/02 10:29:30;;;;;;;51.98;26.95;;;;;;;8.63;70.55;100572.55;124197;1105;104256;-67
2021/03/02 10:32:04;;;;;;;51.70;27.50;;;;;;;8.65;70.14;100580.44;124270;1104;104187;-68
2021/03/02 10:34:35;;;;;;;50.10;26.40;;;;;;;8.70;70.39;100577.62;124281;1104;104834;-67
2021/03/02 10:37:08;;;;;;;49.65;25.65;;;;;;;8.61;70.07;100576.18;124206;1105;104235;-70
2021/03/02 10:39:40;;;;;;;45.47;24.30;;;;;;;8.53;70.46;100573.84;124208;1105;104317;-70
2021/03/02 10:42:11;;;;;;;44.90;23.45;;;;;;;8.46;69.82;100572.33;124291;1105;104210;-73
2021/03/02 10:44:38;;;;;;;46.17;24.40;;;;;;;8.31;69.91;100571.15;124191;1105;104271;-69
2021/03/02 10:47:06;;;;;;;51.37;26.17;;;;;;;8.31;69.86;100560.55;124147;1105;104676;-70
2021/03/02 10:49:34;;;;;;;41.87;21.33;;;;;;;8.40;70.24;100552.23;124271;1105;104226;-68
2021/03/02 10:52:02;;;;;;;45.70;22.97;;;;;;;8.49;69.67;100551.02;124250;1105;104191;-69
2021/03/02 10:54:29;;;;;;;46.77;24.17;;;;;;;8.45;70.00;100549.38;124207;1106;104184;-67
2021/03/02 10:56:57;;;;;;;45.60;22.27;;;;;;;8.49;69.37;100546.59;124190;1105;104280;-68
2021/03/02 10:59:27;;;;;;;43.80;23.10;;;;;;;8.48;69.42;100541.30;124229;1105;104624;-70
2021/03/02 11:01:57;;;;;;;45.73;23.38;;;;;;;8.54;69.56;100535.80;124271;1105;104184;-69
2021/03/02 11:04:24;;;;;;;45.00;22.40;;;;;;;8.58;69.66;100540.05;124247;1105;104261;-68
2021/03/02 11:06:51;;;;;;;48.20;23.23;;;;;;;8.55;69.65;100544.63;124202;1105;104262;-70
2021/03/02 11:09:20;;;;;;;47.27;23.93;;;;;;;8.48;69.34;100530.70;124230;1105;104223;-68
2021/03/02 11:11:47;;;;;;;47.10;23.35;;;;;;;8.48;69.41;100514.78;124201;1105;104286;-71
2021/03/02 11:14:17;;;;;;;41.93;20.53;;;;;;;8.51;69.08;100513.85;124149;1105;104264;-70
2021/03/02 11:16:44;;;;;;;47.03;22.17;;;;;;;8.48;69.08;100507.74;124279;1105;104185;-69
2021/03/02 11:19:14;;;;;;;44.03;22.10;;;;;;;8.52;69.17;100519.08;124260;1105;104255;-69
2021/03/02 11:21:45;;;;;;;45.43;22.23;;;;;;;8.47;69.28;100505.11;124336;1105;104158;-70
2021/03/02 11:24:12;;;;;;;44.60;22.93;;;;;;;8.51;68.99;100513.85;124011;1105;104299;-68